Time;durP1;ratioP1;P1;durP2;ratioP2;P2;SDS_P1;SDS_P2;PMS_P1;PMS_P2;Temp;Humidity;BMP_temperature;BMP_pressure;BME280_temperature;BME280_humidity;BME280_pressure;Samples;Min_cycle;Max_cycle;Signal;HPM_P1;HPM_P2
2021/01/06 00:02:19;;;;;;;10.57;6.83;;;;;;;12.85;40.66;102649.25;5095363;28;20054;-75
2021/01/06 00:04:45;;;;;;;10.23;6.03;;;;;;;12.98;40.31;102640.38;5113519;28;20055;-74
2021/01/06 00:07:10;;;;;;;8.43;5.80;;;;;;;12.98;40.36;102632.97;5095153;28;20497;-76
2021/01/06 00:09:36;;;;;;;10.68;6.53;;;;;;;12.83;40.61;102651.44;5113497;28;20397;-74
2021/01/06 00:12:04;;;;;;;16.23;6.72;;;;;;;13.02;40.24;102642.28;5113435;28;20185;-74
2021/01/06 00:14:30;;;;;;;11.43;6.68;;;;;;;12.96;40.40;102635.19;5113107;28;20519;-74
2021/01/06 00:16:56;;;;;;;7.82;5.82;;;;;;;12.93;40.55;102635.75;5113165;28;20023;-76
2021/01/06 00:19:21;;;;;;;9.95;6.25;;;;;;;12.66;41.16;102643.56;5113201;28;20023;-81
2021/01/06 00:21:47;;;;;;;10.43;5.53;;;;;;;12.94;40.43;102631.09;5113250;28;20050;-75
2021/01/06 00:24:13;;;;;;;9.18;5.72;;;;;;;12.87;40.35;102634.16;5113291;28;20035;-75
2021/01/06 00:26:39;;;;;;;13.35;5.55;;;;;;;12.79;40.67;102640.22;5113140;28;20065;-80
2021/01/06 00:29:12;;;;;;;9.07;5.55;;;;;;;12.85;40.38;102627.31;5113136;28;20525;-74
2021/01/06 00:31:43;;;;;;;8.30;4.65;;;;;;;12.63;40.78;102628.50;5113050;28;20035;-81
2021/01/06 00:34:11;;;;;;;9.18;4.72;;;;;;;12.75;40.57;102617.19;5112991;28;20031;-75
2021/01/06 00:36:37;;;;;;;6.88;3.75;;;;;;;12.74;40.82;102621.84;5113073;28;20047;-74
2021/01/06 00:39:04;;;;;;;7.28;4.65;;;;;;;13.04;40.50;102612.63;5080002;28;20081;-76
2021/01/06 00:41:35;;;;;;;7.03;5.35;;;;;;;12.98;40.43;102615.69;5071173;28;20024;-81
2021/01/06 00:44:01;;;;;;;11.85;4.53;;;;;;;13.19;40.07;102617.19;5072381;28;20058;-81
2021/01/06 00:46:37;;;;;;;8.20;4.68;;;;;;;13.02;40.01;102616.78;5072345;28;20033;-76
2021/01/06 00:49:04;;;;;;;9.63;3.97;;;;;;;13.00;40.32;102614.31;5075584;28;20414;-75
2021/01/06 00:51:30;;;;;;;8.93;3.50;;;;;;;13.21;39.89;102615.00;5079122;28;20024;-82
2021/01/06 00:53:56;;;;;;;6.55;4.18;;;;;;;12.96;40.08;102612.41;5079053;28;20391;-75
2021/01/06 00:56:32;;;;;;;7.95;4.07;;;;;;;12.88;40.09;102610.28;5079084;28;20028;-75
2021/01/06 00:58:59;;;;;;;9.40;3.80;;;;;;;13.24;39.60;102602.66;5078991;28;20340;-81
2021/01/06 01:01:26;;;;;;;6.82;3.65;;;;;;;13.16;39.61;102601.31;5079060;28;20112;-79
2021/01/06 01:03:52;;;;;;;6.95;4.25;;;;;;;13.24;39.22;102608.16;5078934;28;20043;-75
2021/01/06 01:06:30;;;;;;;7.05;3.60;;;;;;;12.86;39.72;102601.50;5078922;28;20028;-74
2021/01/06 01:08:57;;;;;;;7.82;4.68;;;;;;;12.65;40.06;102603.53;5078829;28;20032;-75
2021/01/06 01:11:22;;;;;;;7.32;4.63;;;;;;;12.84;39.87;102603.69;5078863;28;20024;-74
2021/01/06 01:14:28;;;;;;;8.82;5.43;;;;;;;12.76;39.87;102597.69;5078786;28;20051;-81
2021/01/06 01:16:53;;;;;;;12.20;4.63;;;;;;;12.56;40.17;102595.06;5078862;28;20073;-75
2021/01/06 01:19:19;;;;;;;8.45;5.00;;;;;;;12.67;40.03;102593.09;5079015;28;20123;-75
2021/01/06 01:21:45;;;;;;;7.72;4.78;;;;;;;12.51;40.35;102597.84;5078769;28;20028;-74
2021/01/06 01:24:11;;;;;;;11.07;5.47;;;;;;;12.72;39.96;102587.59;5078714;28;20077;-75
2021/01/06 01:26:36;;;;;;;8.45;5.78;;;;;;;12.84;39.57;102595.47;5370883;22;20745;-78
2021/01/06 01:29:02;;;;;;;7.97;5.20;;;;;;;12.83;39.68;102602.88;5037383;28;20041;-75
2021/01/06 01:31:36;;;;;;;7.25;4.80;;;;;;;12.84;39.74;102603.69;5038545;28;20029;-74
2021/01/06 01:34:03;;;;;;;9.02;5.55;;;;;;;12.99;39.48;102598.94;5020800;28;20068;-75
2021/01/06 01:36:29;;;;;;;9.13;5.45;;;;;;;12.76;39.99;102592.22;5038688;28;20388;-74
2021/01/06 01:38:54;;;;;;;11.23;6.07;;;;;;;12.90;39.86;102588.84;5020859;28;20021;-75
2021/01/06 01:41:26;;;;;;;8.68;5.20;;;;;;;12.97;39.50;102586.63;5038659;28;20079;-75
2021/01/06 01:43:53;;;;;;;9.20;5.43;;;;;;;12.89;39.83;102589.97;5038649;28;20036;-74
2021/01/06 01:46:37;;;;;;;9.20;4.97;;;;;;;12.73;39.96;102584.56;5038558;28;20074;-75
2021/01/06 01:49:08;;;;;;;8.38;4.70;;;;;;;12.85;39.58;102589.72;5038551;28;20030;-74
2021/01/06 01:51:43;;;;;;;12.85;6.72;;;;;;;13.00;39.59;102589.63;5038546;28;20017;-74
2021/01/06 01:54:14;;;;;;;8.95;5.95;;;;;;;12.81;40.02;102593.31;5038435;28;20038;-74
2021/01/06 01:56:56;;;;;;;7.90;5.13;;;;;;;12.85;40.31;102588.91;5038486;28;20589;-78
2021/01/06 01:59:54;;;;;;;9.90;5.63;;;;;;;12.74;40.55;102588.13;5037190;28;20549;-75
2021/01/06 02:02:32;;;;;;;10.25;5.45;;;;;;;12.89;40.51;102592.69;5035382;28;20068;-74
2021/01/06 02:05:06;;;;;;;8.30;6.22;;;;;;;13.12;39.73;102583.75;5035283;28;20037;-74
2021/01/06 02:07:42;;;;;;;8.30;5.85;;;;;;;12.93;40.28;102577.31;5035256;28;20029;-74
2021/01/06 02:10:34;;;;;;;8.25;5.40;;;;;;;12.57;40.99;102582.19;5035228;28;20033;-79
2021/01/06 02:13:21;;;;;;;9.50;6.13;;;;;;;12.71;40.77;102583.22;5035109;28;20068;-78
2021/01/06 02:16:05;;;;;;;10.10;6.80;;;;;;;12.45;41.27;102580.56;5035045;28;20045;-75
2021/01/06 02:18:31;;;;;;;13.77;7.40;;;;;;;12.87;40.31;102582.00;5035037;28;20080;-76
2021/01/06 02:21:08;;;;;;;13.60;6.93;;;;;;;12.58;40.75;102581.91;5034948;28;20041;-74
2021/01/06 02:23:35;;;;;;;10.02;7.45;;;;;;;12.79;40.75;102579.88;5034907;28;20075;-75
2021/01/06 02:26:01;;;;;;;10.35;7.22;;;;;;;12.67;40.86;102571.16;5017100;28;20026;-74
2021/01/06 02:28:28;;;;;;;12.20;7.50;;;;;;;12.97;40.04;102575.63;5034618;28;20144;-75
2021/01/06 02:30:53;;;;;;;12.77;6.78;;;;;;;12.95;40.03;102577.84;5034818;28;20464;-76
2021/01/06 02:33:20;;;;;;;11.52;7.53;;;;;;;12.92;40.18;102575.66;5034738;28;20037;-74
2021/01/06 02:35:46;;;;;;;14.30;6.70;;;;;;;12.94;40.04;102573.47;5034735;28;20049;-75
2021/01/06 02:38:12;;;;;;;11.45;7.80;;;;;;;13.14;39.61;102567.00;5034602;28;20033;-79
2021/01/06 02:40:38;;;;;;;12.95;7.85;;;;;;;12.92;39.93;102562.78;5034587;28;20483;-74
2021/01/06 02:43:04;;;;;;;11.00;7.97;;;;;;;13.00;39.84;102566.84;5034596;28;20040;-75
2021/01/06 02:45:29;;;;;;;11.55;7.43;;;;;;;12.97;39.97;102570.16;5034530;28;20025;-74
2021/01/06 02:47:55;;;;;;;10.68;7.30;;;;;;;12.94;39.99;102565.25;5034476;28;20044;-78
2021/01/06 02:50:26;;;;;;;9.68;6.78;;;;;;;12.90;39.91;102570.47;5034447;28;20395;-75
2021/01/06 02:52:58;;;;;;;14.75;7.40;;;;;;;12.71;40.19;102555.78;5034391;28;20163;-77
2021/01/06 02:55:25;;;;;;;11.07;7.05;;;;;;;12.74;40.09;102556.03;5034372;28;20040;-75
2021/01/06 02:57:53;;;;;;;13.13;7.57;;;;;;;12.76;39.96;102556.56;5034191;28;20087;-75
2021/01/06 03:00:24;;;;;;;10.93;7.72;;;;;;;12.76;39.85;102551.06;5034289;28;20022;-74
2021/01/06 03:02:51;;;;;;;10.32;6.28;;;;;;;12.67;40.37;102549.22;5034244;28;20079;-74
2021/01/06 03:05:22;;;;;;;11.73;7.40;;;;;;;12.78;39.75;102546.13;5034081;28;20029;-75
2021/01/06 03:07:49;;;;;;;10.57;6.70;;;;;;;12.75;40.04;102546.69;5034136;28;20144;-74
2021/01/06 03:10:20;;;;;;;13.30;7.03;;;;;;;12.82;39.66;102540.88;5034052;28;20045;-78
2021/01/06 03:12:47;;;;;;;10.50;8.23;;;;;;;12.44;40.67;102542.47;5033631;28;20373;-74
2021/01/06 03:15:15;;;;;;;9.25;6.70;;;;;;;12.60;40.34;102543.22;5033991;28;20056;-75
2021/01/06 03:17:41;;;;;;;12.73;6.90;;;;;;;12.57;40.39;102544.63;5033962;28;20037;-75
2021/01/06 03:20:15;;;;;;;8.57;7.03;;;;;;;12.68;39.99;102543.44;5033909;28;20087;-74
2021/01/06 03:22:43;;;;;;;9.98;6.95;;;;;;;12.71;39.94;102542.06;5033895;28;20068;-74
2021/01/06 03:25:14;;;;;;;10.02;5.72;;;;;;;12.95;39.42;102536.69;5016065;28;20040;-74
2021/01/06 03:27:43;;;;;;;9.95;6.60;;;;;;;12.95;39.55;102531.22;5033531;28;20049;-78
2021/01/06 03:30:16;;;;;;;7.88;5.50;;;;;;;12.97;39.56;102538.03;5033756;28;20487;-74
2021/01/06 03:32:58;;;;;;;8.50;5.15;;;;;;;12.87;39.64;102540.03;5033564;28;20029;-75
2021/01/06 03:35:39;;;;;;;9.23;5.53;;;;;;;12.95;39.55;102534.78;5033644;28;20025;-75
2021/01/06 03:38:30;;;;;;;10.60;5.28;;;;;;;12.72;39.93;102525.31;5033598;28;20075;-75
2021/01/06 03:40:57;;;;;;;9.82;6.00;;;;;;;12.84;39.79;102521.41;5024990;28;20034;-75
2021/01/06 03:43:26;;;;;;;11.20;5.45;;;;;;;12.93;39.50;102520.53;5032357;28;20039;-75
2021/01/06 03:45:57;;;;;;;10.13;5.23;;;;;;;12.75;39.78;102516.50;5032937;28;20029;-76
2021/01/06 03:48:56;;;;;;;11.30;5.47;;;;;;;12.43;40.18;102516.97;5015681;28;20265;-75
2021/01/06 03:51:46;;;;;;;7.70;4.95;;;;;;;12.28;40.43;102508.03;5033402;28;20030;-74
2021/01/06 03:54:37;;;;;;;8.07;4.95;;;;;;;12.68;39.66;102513.28;5033180;28;20040;-75
2021/01/06 03:57:05;;;;;;;7.18;5.45;;;;;;;12.65;39.88;102510.28;5033245;28;20025;-74
2021/01/06 03:59:35;;;;;;;7.50;5.28;;;;;;;12.93;39.05;102508.72;5033128;28;20029;-79
2021/01/06 04:02:14;;;;;;;7.88;5.53;;;;;;;12.85;39.37;102512.09;5033068;28;20390;-74
2021/01/06 04:04:47;;;;;;;7.63;5.45;;;;;;;12.48;39.86;102505.19;5033098;28;20033;-75
2021/01/06 04:07:28;;;;;;;7.63;4.72;;;;;;;12.74;39.38;102509.41;5032982;28;20026;-74
2021/01/06 04:10:11;;;;;;;7.50;5.75;;;;;;;12.84;39.37;102504.94;5032970;28;20029;-75
2021/01/06 04:12:37;;;;;;;8.23;5.53;;;;;;;12.81;39.48;102503.59;5032850;28;20017;-75
2021/01/06 04:15:05;;;;;;;9.73;6.00;;;;;;;12.72;39.54;102500.63;5032915;28;20376;-74
2021/01/06 04:17:34;;;;;;;8.60;5.05;;;;;;;12.62;39.77;102503.47;5032921;28;20025;-75
2021/01/06 04:20:28;;;;;;;7.93;5.40;;;;;;;12.64;39.64;102501.25;5032857;28;20120;-79
2021/01/06 04:22:56;;;;;;;9.02;5.30;;;;;;;12.49;40.15;102498.59;5032144;28;20021;-74
2021/01/06 04:25:31;;;;;;;7.27;5.43;;;;;;;12.42;40.20;102495.34;5032758;28;20028;-75
2021/01/06 04:28:01;;;;;;;7.97;4.88;;;;;;;12.43;40.10;102491.50;5032586;28;20531;-74
2021/01/06 04:30:39;;;;;;;7.90;4.93;;;;;;;12.30;40.49;102490.19;5032666;28;20025;-74
2021/01/06 04:33:33;;;;;;;9.02;5.45;;;;;;;12.50;40.07;102489.25;5032554;28;20083;-75
2021/01/06 04:36:04;;;;;;;7.87;5.53;;;;;;;12.61;39.66;102490.81;5027208;28;20448;-75
2021/01/06 04:38:34;;;;;;;9.50;4.87;;;;;;;12.56;39.76;102484.56;5032595;28;20029;-75
2021/01/06 04:41:18;;;;;;;7.57;4.38;;;;;;;12.73;39.47;102483.06;5032642;28;20021;-75
2021/01/06 04:44:04;;;;;;;8.50;5.47;;;;;;;12.68;39.52;102490.50;5032629;28;20033;-75
2021/01/06 04:46:56;;;;;;;6.15;4.63;;;;;;;12.79;39.39;102486.59;5014893;28;20034;-79
2021/01/06 04:49:36;;;;;;;8.00;4.60;;;;;;;12.86;39.28;102480.81;5032518;28;20369;-75
2021/01/06 04:52:34;;;;;;;7.40;4.97;;;;;;;12.88;39.21;102475.84;5032379;28;20026;-75
2021/01/06 04:55:21;;;;;;;7.22;4.60;;;;;;;12.48;40.15;102469.53;5032326;28;20090;-74
2021/01/06 04:58:01;;;;;;;7.95;4.80;;;;;;;12.76;39.47;102466.03;5032550;28;20431;-75
2021/01/06 05:00:50;;;;;;;7.68;4.82;;;;;;;12.91;39.37;102461.53;5032485;28;20029;-74
2021/01/06 05:03:31;;;;;;;10.27;4.70;;;;;;;12.91;39.35;102462.34;5032199;28;20060;-74
2021/01/06 05:06:15;;;;;;;7.53;4.70;;;;;;;12.87;39.62;102455.00;5030800;28;20060;-74
2021/01/06 05:08:44;;;;;;;10.38;5.43;;;;;;;12.85;39.51;102458.03;5032148;28;20479;-75
2021/01/06 05:11:22;;;;;;;8.93;4.60;;;;;;;12.75;39.55;102449.88;5032328;28;20111;-75
2021/01/06 05:14:02;;;;;;;6.35;4.55;;;;;;;12.70;40.15;102450.75;5031990;28;20029;-80
2021/01/06 05:16:33;;;;;;;8.27;4.63;;;;;;;12.64;40.27;102449.13;5032341;28;20032;-79
2021/01/06 05:18:59;;;;;;;7.95;4.47;;;;;;;12.73;40.15;102452.91;5032335;28;20377;-75
2021/01/06 05:21:28;;;;;;;8.55;4.72;;;;;;;12.73;39.96;102454.81;5032158;28;20036;-74
2021/01/06 05:24:05;;;;;;;6.23;4.13;;;;;;;12.46;40.38;102447.88;5032272;28;20028;-77
2021/01/06 05:26:30;;;;;;;6.43;4.00;;;;;;;12.70;40.10;102448.00;5032208;28;20029;-74
2021/01/06 05:28:56;;;;;;;6.93;4.33;;;;;;;12.75;39.96;102449.88;5031957;28;20095;-74
2021/01/06 05:31:21;;;;;;;8.67;4.60;;;;;;;12.39;40.83;102449.28;5014497;28;20507;-75
2021/01/06 05:33:52;;;;;;;5.60;3.92;;;;;;;12.35;40.83;102445.50;5032158;28;20052;-75
2021/01/06 05:36:37;;;;;;;8.63;4.60;;;;;;;12.48;40.87;102447.59;5035860;28;20100;-75
2021/01/06 05:39:19;;;;;;;6.77;4.63;;;;;;;12.90;39.61;102444.25;5035872;28;20028;-76
2021/01/06 05:41:46;;;;;;;5.87;4.30;;;;;;;12.79;39.77;102439.97;5035825;28;20524;-78
2021/01/06 05:44:11;;;;;;;7.43;4.43;;;;;;;12.89;39.86;102436.31;5035707;28;20025;-74
2021/01/06 05:46:45;;;;;;;7.35;4.07;;;;;;;12.85;39.92;102446.25;5035681;28;20025;-78
2021/01/06 05:49:22;;;;;;;5.17;3.97;;;;;;;12.89;39.63;102447.28;5035652;28;20025;-75
2021/01/06 05:52:01;;;;;;;9.33;4.63;;;;;;;12.82;39.91;102449.53;5034659;28;20029;-74
2021/01/06 05:54:55;;;;;;;10.80;4.63;;;;;;;12.55;40.20;102439.88;5035107;28;20030;-76
2021/01/06 05:57:26;;;;;;;6.67;4.37;;;;;;;12.25;40.86;102448.31;5035564;28;20415;-74
2021/01/06 06:00:10;;;;;;;9.63;4.40;;;;;;;12.56;40.26;102448.94;5035451;28;20037;-75
2021/01/06 06:02:58;;;;;;;8.27;4.30;;;;;;;12.60;40.24;102442.56;5035374;28;20029;-75
2021/01/06 06:05:41;;;;;;;12.20;5.00;;;;;;;12.50;40.34;102443.47;5035203;28;20025;-74
2021/01/06 06:08:07;;;;;;;5.97;4.20;;;;;;;12.56;40.17;102441.53;5033375;28;20022;-74
2021/01/06 06:11:03;;;;;;;8.73;4.90;;;;;;;12.51;40.41;102436.06;5033319;28;20025;-74
2021/01/06 06:13:40;;;;;;;7.60;3.85;;;;;;;12.53;40.34;102430.28;5033283;28;20568;-74
2021/01/06 06:16:18;;;;;;;5.17;4.07;;;;;;;12.36;40.79;102438.91;5033240;28;20483;-74
2021/01/06 06:19:08;;;;;;;9.63;5.07;;;;;;;12.48;40.32;102437.47;5033277;28;20105;-75
2021/01/06 06:21:49;;;;;;;10.90;5.45;;;;;;;12.36;40.65;102439.72;5033828;28;20040;-74
2021/01/06 06:24:47;;;;;;;5.57;4.20;;;;;;;12.32;40.96;102437.81;5035014;28;20036;-75
2021/01/06 06:27:30;;;;;;;6.43;4.40;;;;;;;12.16;41.24;102445.31;5035246;28;20044;-76
2021/01/06 06:30:12;;;;;;;6.10;3.83;;;;;;;11.94;41.32;102443.78;5017158;28;20388;-75
2021/01/06 06:32:44;;;;;;;8.48;4.78;;;;;;;12.35;40.68;102453.72;5034676;28;20033;-75
2021/01/06 06:35:21;;;;;;;11.23;4.38;;;;;;;12.23;40.99;102445.81;5034782;28;20022;-74
2021/01/06 06:38:03;;;;;;;6.53;3.73;;;;;;;12.43;40.42;102442.97;5034660;28;20063;-75
2021/01/06 06:41:04;;;;;;;7.23;3.70;;;;;;;12.46;40.25;102439.63;5034690;28;20025;-74
2021/01/06 06:43:45;;;;;;;6.10;3.87;;;;;;;12.47;40.44;102438.56;5030639;28;20038;-74
2021/01/06 06:46:43;;;;;;;6.07;3.47;;;;;;;12.51;40.25;102433.31;5033844;28;20025;-73
2021/01/06 06:49:43;;;;;;;3.90;2.80;;;;;;;12.64;39.94;102437.34;5034554;28;20026;-74
2021/01/06 06:52:14;;;;;;;10.70;3.65;;;;;;;12.50;40.35;102435.25;5034463;28;20021;-74
2021/01/06 06:54:49;;;;;;;5.83;3.00;;;;;;;12.49;40.27;102432.78;5034347;28;20032;-74
2021/01/06 06:57:28;;;;;;;4.82;3.42;;;;;;;12.60;39.81;102442.56;5034401;28;20104;-73
2021/01/06 07:00:15;;;;;;;8.73;3.70;;;;;;;12.83;39.67;102437.47;5034350;28;20060;-73
2021/01/06 07:02:44;;;;;;;7.40;4.03;;;;;;;12.71;39.73;102444.16;5034248;28;20108;-76
2021/01/06 07:05:21;;;;;;;6.87;3.20;;;;;;;12.60;39.85;102449.97;5034185;28;20028;-74
2021/01/06 07:07:53;;;;;;;7.23;3.50;;;;;;;12.66;39.93;102443.34;5034170;28;20084;-73
2021/01/06 07:10:26;;;;;;;9.70;3.70;;;;;;;12.84;39.58;102447.31;5034140;28;20493;-74
2021/01/06 07:12:55;;;;;;;6.93;4.47;;;;;;;12.76;39.79;102443.28;5033963;28;20095;-79
2021/01/06 07:15:23;;;;;;;5.73;3.50;;;;;;;12.68;39.89;102441.97;5016150;28;20033;-74
2021/01/06 07:17:49;;;;;;;6.47;3.63;;;;;;;12.81;39.40;102448.72;5016209;28;20022;-75
2021/01/06 07:20:36;;;;;;;7.88;4.18;;;;;;;12.50;39.15;102445.41;5033954;28;20044;-74
2021/01/06 07:23:18;;;;;;;7.90;4.15;;;;;;;12.62;39.41;102448.63;5033890;28;20025;-74
2021/01/06 07:25:55;;;;;;;12.03;4.27;;;;;;;12.66;39.26;102446.91;5033832;28;20447;-74
2021/01/06 07:28:21;;;;;;;6.93;3.75;;;;;;;12.65;39.37;102448.03;5033691;28;20049;-74
2021/01/06 07:30:50;;;;;;;5.70;3.50;;;;;;;12.67;39.07;102443.06;5033670;28;20037;-75
2021/01/06 07:33:28;;;;;;;12.10;4.32;;;;;;;12.67;39.00;102443.06;5033497;28;20029;-78
2021/01/06 07:36:06;;;;;;;13.23;4.55;;;;;;;12.32;39.88;102446.88;5033678;28;20602;-77
2021/01/06 07:38:33;;;;;;;12.87;4.67;;;;;;;12.47;39.58;102445.97;5033600;28;20021;-75
2021/01/06 07:40:59;;;;;;;12.60;4.93;;;;;;;12.36;39.78;102441.63;5033622;28;20040;-78
2021/01/06 07:43:29;;;;;;;12.30;3.90;;;;;;;12.41;39.56;102447.09;5033141;28;20022;-74
2021/01/06 07:46:21;;;;;;;10.57;4.05;;;;;;;12.33;39.59;102450.44;5033323;28;20116;-74
2021/01/06 07:49:01;;;;;;;11.50;3.47;;;;;;;12.33;39.64;102455.94;5033401;28;20079;-76
2021/01/06 07:52:01;;;;;;;9.90;3.47;;;;;;;12.25;39.62;102459.25;5033334;28;20029;-75
2021/01/06 07:54:57;;;;;;;9.03;4.17;;;;;;;12.10;40.06;102463.72;4988954;28;20041;-74
2021/01/06 07:57:43;;;;;;;6.97;4.00;;;;;;;12.07;39.75;102457.97;5012389;28;20029;-77
2021/01/06 08:00:15;;;;;;;11.70;7.60;;;;;;;12.16;39.70;102457.09;5003835;28;20029;-77
2021/01/06 08:02:59;;;;;;;29.63;26.93;;;;;;;12.26;39.49;102455.41;5020048;28;20026;-79
2021/01/06 08:05:33;;;;;;;17.10;14.00;;;;;;;12.39;39.24;102454.78;5005967;28;20096;-81
2021/01/06 08:08:16;;;;;;;13.37;11.93;;;;;;;12.19;39.52;102455.72;5014165;28;20047;-74
2021/01/06 08:10:45;;;;;;;26.75;24.05;;;;;;;12.26;39.49;102450.75;4997332;28;20069;-74
2021/01/06 08:13:22;;;;;;;9.07;7.78;;;;;;;12.41;39.40;102452.59;5016089;28;20034;-74
2021/01/06 08:15:52;;;;;;;11.67;4.90;;;;;;;12.34;39.38;102457.56;5016449;28;20033;-74
2021/01/06 08:18:45;;;;;;;11.07;9.35;;;;;;;12.19;39.76;102447.50;5016848;28;20036;-75
2021/01/06 08:21:30;;;;;;;28.40;25.60;;;;;;;12.06;39.84;102451.66;5015947;28;20080;-75
2021/01/06 08:24:06;;;;;;;15.80;11.43;;;;;;;12.18;39.81;102451.34;5015624;28;20033;-74
2021/01/06 08:26:34;;;;;;;10.30;9.30;;;;;;;12.13;39.94;102449.44;5016633;28;20033;-76
2021/01/06 08:29:19;;;;;;;12.80;11.60;;;;;;;12.19;39.59;102456.53;5016919;28;20103;-74
2021/01/06 08:31:51;;;;;;;20.93;18.97;;;;;;;12.24;39.51;102455.69;5015087;28;20116;-76
2021/01/06 08:34:23;;;;;;;11.93;9.70;;;;;;;12.30;39.35;102457.28;5016989;28;20040;-81
2021/01/06 08:36:59;;;;;;;10.13;5.50;;;;;;;12.44;39.20;102446.53;5018485;28;20104;-74
2021/01/06 08:39:26;;;;;;;8.68;5.15;;;;;;;12.41;39.18;102445.19;4996871;28;20763;-75
2021/01/06 08:41:56;;;;;;;13.10;10.60;;;;;;;12.37;39.25;102456.97;5013821;28;21457;-73
2021/01/06 08:44:33;;;;;;;18.35;11.80;;;;;;;12.11;39.55;102456.31;5014502;28;20779;-74
2021/01/06 08:47:02;;;;;;;9.50;8.25;;;;;;;12.36;39.18;102452.59;5014919;28;20029;-74
2021/01/06 08:49:32;;;;;;;6.63;5.45;;;;;;;12.40;39.17;102454.50;5014540;28;20605;-80
2021/01/06 08:52:16;;;;;;;11.32;5.82;;;;;;;12.19;39.41;102448.31;5012211;28;20436;-74
2021/01/06 08:54:44;;;;;;;9.67;8.37;;;;;;;12.22;39.42;102439.53;5012165;28;20472;-78
2021/01/06 08:57:34;;;;;;;6.65;4.88;;;;;;;12.01;39.86;102442.66;5014544;28;20025;-79
2021/01/06 09:00:15;;;;;;;9.15;7.50;;;;;;;12.11;39.65;102442.63;4997548;28;20123;-74
2021/01/06 09:02:47;;;;;;;8.43;3.70;;;;;;;11.96;39.93;102443.50;4997837;28;20095;-77
2021/01/06 09:05:55;;;;;;;8.70;3.80;;;;;;;11.99;40.00;102447.59;5015406;28;20026;-77
2021/01/06 09:08:36;;;;;;;7.38;3.50;;;;;;;12.19;39.61;102448.31;4991480;28;20068;-78
2021/01/06 09:11:07;;;;;;;9.30;4.60;;;;;;;12.36;39.27;102427.94;5020796;28;20073;-76
2021/01/06 09:14:07;;;;;;;18.30;7.97;;;;;;;12.50;38.95;102451.69;5035491;28;20458;-76
2021/01/06 09:16:55;;;;;;;4.40;3.92;;;;;;;12.22;39.45;102458.69;5017831;28;20120;-75
2021/01/06 09:19:26;;;;;;;5.80;3.73;;;;;;;12.30;39.57;102462.78;5015947;28;20407;-76
2021/01/06 09:21:54;;;;;;;6.53;3.60;;;;;;;12.58;38.90;102457.69;5016675;28;20475;-75
2021/01/06 09:24:38;;;;;;;11.73;4.63;;;;;;;12.64;38.60;102451.88;5022924;28;20033;-76
2021/01/06 09:27:32;;;;;;;5.00;3.40;;;;;;;12.60;39.05;102452.72;5044142;28;20028;-75
2021/01/06 09:29:59;;;;;;;6.78;3.50;;;;;;;12.79;38.57;102448.19;5040494;28;20038;-75
2021/01/06 09:32:33;;;;;;;6.07;3.37;;;;;;;12.72;38.86;102451.28;5051405;28;20079;-74
2021/01/06 09:35:04;;;;;;;6.38;4.15;;;;;;;12.50;39.21;102445.41;5036664;28;20440;-76
2021/01/06 09:37:33;;;;;;;9.63;4.13;;;;;;;12.72;38.67;102437.56;5036786;28;20055;-76
2021/01/06 09:40:24;;;;;;;10.60;3.77;;;;;;;12.63;38.87;102439.28;5036675;28;20509;-75
2021/01/06 09:43:05;;;;;;;4.90;3.60;;;;;;;12.43;39.39;102442.97;5033806;28;20282;-78
2021/01/06 09:45:31;;;;;;;5.63;2.95;;;;;;;12.52;39.14;102445.09;5018709;28;20131;-77
2021/01/06 09:48:03;;;;;;;6.00;3.23;;;;;;;12.54;39.12;102448.38;5034346;28;20488;-77
2021/01/06 09:50:52;;;;;;;7.53;3.20;;;;;;;12.49;39.27;102443.75;5016904;28;20030;-78
2021/01/06 09:53:23;;;;;;;9.73;4.45;;;;;;;12.44;39.51;102441.84;5034299;28;20120;-80
2021/01/06 09:55:51;;;;;;;7.97;4.95;;;;;;;12.55;39.11;102445.38;5033952;28;20036;-77
2021/01/06 09:58:31;;;;;;;5.00;3.50;;;;;;;12.41;39.37;102441.63;5033797;28;20025;-77
2021/01/06 10:01:06;;;;;;;5.78;4.15;;;;;;;12.19;39.98;102439.28;5016950;28;20026;-77
2021/01/06 10:03:35;;;;;;;5.82;3.72;;;;;;;12.25;39.51;102434.59;5034523;28;20499;-77
2021/01/06 10:06:32;;;;;;;5.15;3.90;;;;;;;12.30;39.48;102431.81;5022097;28;20021;-78
2021/01/06 10:09:25;;;;;;;7.22;4.25;;;;;;;12.09;40.05;102434.69;5024176;28;20491;-77
2021/01/06 10:11:59;;;;;;;7.17;4.07;;;;;;;12.08;40.10;102433.03;5024974;28;20060;-76
2021/01/06 10:14:55;;;;;;;5.65;3.13;;;;;;;12.32;39.46;102435.06;5022166;28;20025;-78
2021/01/06 10:17:59;;;;;;;4.60;3.47;;;;;;;12.37;39.40;102424.91;5039947;28;20024;-75
2021/01/06 10:20:39;;;;;;;5.97;3.45;;;;;;;12.15;39.76;102433.53;5025924;28;20104;-76
2021/01/06 10:23:32;;;;;;;7.03;3.28;;;;;;;12.40;39.35;102429.84;5022716;28;20498;-76
2021/01/06 10:26:19;;;;;;;6.07;3.90;;;;;;;12.45;39.16;102426.22;5031937;28;20048;-75
2021/01/06 10:28:48;;;;;;;13.30;10.20;;;;;;;12.18;39.84;102432.16;5033271;28;20125;-75
2021/01/06 10:31:18;;;;;;;130.13;99.03;;;;;;;12.08;40.01;102427.53;5020613;28;20565;-75
2021/01/06 10:34:11;;;;;;;97.10;86.43;;;;;;;12.22;39.89;102433.22;5053864;28;20113;-75
2021/01/06 10:37:08;;;;;;;80.30;62.00;;;;;;;12.16;40.23;102437.09;5053725;28;20028;-75
2021/01/06 10:39:42;;;;;;;43.10;30.80;;;;;;;12.35;39.60;102423.56;5031088;28;20104;-74
2021/01/06 10:42:17;;;;;;;38.53;32.70;;;;;;;12.57;39.25;102425.88;5034150;28;20027;-74
2021/01/06 10:45:01;;;;;;;12.97;9.37;;;;;;;12.60;39.19;102423.38;5034423;28;20029;-74
2021/01/06 10:47:32;;;;;;;6.70;4.00;;;;;;;12.68;38.85;102430.16;5015697;28;20029;-73
2021/01/06 10:50:16;;;;;;;8.37;6.17;;;;;;;12.65;39.14;102425.28;5034197;28;20031;-73
2021/01/06 10:53:12;;;;;;;6.43;4.20;;;;;;;12.69;39.04;102415.34;5034239;28;20108;-74
2021/01/06 10:56:11;;;;;;;7.83;4.03;;;;;;;12.65;39.31;102422.53;5033504;28;20030;-74
2021/01/06 10:58:37;;;;;;;6.47;4.63;;;;;;;12.66;39.20;102421.41;5016366;28;20388;-74
2021/01/06 11:01:09;;;;;;;11.10;4.57;;;;;;;12.63;39.54;102417.34;5034167;28;20022;-78
2021/01/06 11:03:56;;;;;;;7.67;3.67;;;;;;;12.62;39.37;102410.22;5014529;28;20033;-73
2021/01/06 11:06:29;;;;;;;6.47;3.58;;;;;;;12.72;39.19;102404.63;5034073;28;20033;-74
2021/01/06 11:09:08;;;;;;;7.57;3.50;;;;;;;12.74;39.54;102407.91;5016173;28;20033;-77
2021/01/06 11:11:34;;;;;;;7.73;4.10;;;;;;;12.88;39.33;102408.06;5031750;28;20048;-77
2021/01/06 11:14:25;;;;;;;7.82;4.50;;;;;;;13.01;39.36;102404.66;5016087;28;20030;-74
2021/01/06 11:17:21;;;;;;;11.00;8.33;;;;;;;13.14;39.38;102386.69;5015257;28;20060;-74
2021/01/06 11:19:53;;;;;;;11.65;8.70;;;;;;;13.24;39.00;102391.28;5015954;28;20036;-75
2021/01/06 11:22:33;;;;;;;9.43;5.63;;;;;;;13.49;38.85;102379.19;5033331;28;20057;-79
2021/01/06 11:25:34;;;;;;;6.68;4.45;;;;;;;13.56;38.75;102383.22;5028285;28;20053;-73
2021/01/06 11:28:03;;;;;;;9.00;4.43;;;;;;;13.81;38.44;102378.53;5035583;28;20388;-74
2021/01/06 11:30:38;;;;;;;6.60;3.90;;;;;;;13.82;38.34;102369.97;5047010;28;20029;-74
2021/01/06 11:33:15;;;;;;;6.95;3.92;;;;;;;13.78;38.24;102371.69;5033256;28;20033;-77
2021/01/06 11:35:46;;;;;;;10.52;4.93;;;;;;;13.82;38.25;102364.47;5015885;28;20060;-75
2021/01/06 11:38:39;;;;;;;8.45;5.45;;;;;;;13.86;38.14;102372.97;5032660;28;20130;-75
2021/01/06 11:41:31;;;;;;;10.75;5.30;;;;;;;13.72;38.31;102367.38;5032138;28;20032;-77
2021/01/06 11:44:05;;;;;;;6.50;4.40;;;;;;;13.82;38.03;102353.50;5002483;28;20033;-75
2021/01/06 11:46:40;;;;;;;7.75;4.40;;;;;;;13.80;38.21;102358.47;5014852;28;20033;-76
2021/01/06 11:49:11;;;;;;;9.60;6.28;;;;;;;13.81;38.12;102346.38;5038595;28;20117;-76
2021/01/06 11:52:00;;;;;;;13.23;9.07;;;;;;;13.66;38.48;102346.56;5015464;28;20025;-75
2021/01/06 11:54:29;;;;;;;32.35;19.65;;;;;;;13.66;38.54;102348.50;5032393;28;20081;-75
2021/01/06 11:57:05;;;;;;;74.30;43.65;;;;;;;13.52;38.64;102340.16;5013427;28;20030;-75
2021/01/06 11:59:39;;;;;;;152.30;76.53;;;;;;;13.48;38.75;102345.44;4997600;28;20084;-76
2021/01/06 12:02:55;;;;;;;155.05;75.95;;;;;;;13.69;38.42;102328.69;5033244;28;20029;-78
2021/01/06 12:05:25;;;;;;;16.40;8.95;;;;;;;13.74;38.27;102334.09;4991005;28;20041;-76